Naugatuck, West Virginia
Current Conditions -  °F | °C
As of 6:15 AM on Sunday 23 Nov 2014 (Local Time) from KSJS Reporting Station
Overcast Overcast  
Wind Chill: 52°   Ceiling: 10000
Heat Index: 52°   Visibility: 10mi
Dew Point: 34°   Wind: 6mph
Humidity: 51%   Direction: 130°SE
Pressure: 30.07"   Gusts: NA
Location:  37.79°N, 82.35°W
Report Text: KSJS 231115Z AUTO 13005KT 10SM OVC100 11/01 A3007 RMK AO2 T01100011
Loading
Personal Weather Stations






























Interactive Weather Map New forecast layout! Learn more

10-Day Weather Forecast

Advertisements
Track Severe Weather on mobile